createdAt,value
2019-01-23T00:01:37.177Z,99.40
2019-01-23T00:04:08.269Z,99.40
2019-01-23T00:06:39.532Z,99.50
2019-01-23T00:09:21.909Z,99.50
2019-01-23T00:11:52.005Z,99.40
2019-01-23T00:14:22.127Z,99.50
2019-01-23T00:16:52.222Z,99.50
2019-01-23T00:19:22.340Z,99.50
2019-01-23T00:21:52.435Z,99.60
2019-01-23T00:24:22.549Z,99.60
2019-01-23T00:26:52.648Z,99.60
2019-01-23T00:29:23.832Z,99.90
2019-01-23T00:31:53.931Z,99.90
2019-01-23T00:34:24.044Z,99.80
2019-01-23T00:36:54.138Z,99.90
2019-01-23T00:39:24.269Z,99.90
2019-01-23T00:41:54.365Z,99.90
2019-01-23T00:44:24.494Z,99.90
2019-01-23T00:46:54.589Z,99.90
2019-01-23T00:49:24.708Z,99.90
2019-01-23T00:51:54.801Z,99.90
2019-01-23T00:54:25.187Z,99.90
2019-01-23T00:56:55.289Z,99.90
2019-01-23T00:59:25.405Z,99.90
2019-01-23T01:01:56.262Z,99.90
2019-01-23T01:04:26.525Z,99.90
2019-01-23T01:06:56.609Z,99.90
2019-01-23T01:09:26.733Z,99.90
2019-01-23T01:11:56.840Z,99.90
2019-01-23T01:14:26.971Z,99.90
2019-01-23T01:16:57.090Z,99.90
2019-01-23T01:19:27.201Z,99.90
2019-01-23T01:22:05.868Z,99.90
2019-01-23T01:24:35.977Z,99.90
2019-01-23T01:27:06.092Z,99.90
2019-01-23T01:29:36.211Z,99.90
2019-01-23T01:32:06.323Z,99.90
2019-01-23T01:34:36.443Z,99.90
2019-01-23T01:37:06.571Z,99.90
2019-01-23T01:39:36.692Z,99.90
2019-01-23T01:42:06.788Z,99.90
2019-01-23T01:44:36.896Z,99.90
2019-01-23T01:47:06.987Z,99.90
2019-01-23T01:49:37.115Z,99.90
2019-01-23T01:52:26.664Z,99.90
2019-01-23T01:54:56.758Z,99.90
2019-01-23T01:57:26.848Z,99.90
2019-01-23T01:59:56.974Z,99.90
2019-01-23T02:02:27.068Z,99.90
2019-01-23T02:04:57.173Z,99.90
2019-01-23T02:07:27.277Z,99.90
2019-01-23T02:09:57.396Z,99.90
2019-01-23T02:12:27.484Z,99.90
2019-01-23T02:14:57.593Z,99.90
2019-01-23T02:17:27.687Z,99.90
2019-01-23T02:19:57.825Z,99.90
2019-01-23T02:22:27.897Z,99.90
2019-01-23T02:24:58.021Z,99.90
2019-01-23T02:27:28.116Z,99.90
2019-01-23T02:29:58.235Z,99.90
2019-01-23T02:32:28.327Z,99.90
2019-01-23T02:34:58.449Z,99.90
2019-01-23T02:37:28.736Z,99.90
2019-01-23T02:39:58.834Z,99.90
2019-01-23T02:42:28.934Z,99.90
2019-01-23T02:44:59.039Z,99.90
2019-01-23T02:47:29.144Z,99.90
2019-01-23T02:49:59.265Z,99.70
2019-01-23T02:52:29.363Z,99.50
2019-01-23T02:54:59.473Z,99.60
2019-01-23T02:57:29.566Z,99.60
2019-01-23T03:00:00.646Z,99.60
2019-01-23T03:02:30.739Z,99.60
2019-01-23T03:05:00.872Z,99.30
2019-01-23T03:07:30.952Z,99.30
2019-01-23T03:10:01.076Z,99.50
2019-01-23T03:12:32.245Z,99.50
2019-01-23T03:15:02.394Z,99.30
2019-01-23T03:17:32.471Z,99.30
2019-01-23T03:20:02.588Z,99.30
2019-01-23T03:22:32.678Z,99.50
2019-01-23T03:25:02.960Z,99.30
2019-01-23T03:27:33.059Z,99.20
2019-01-23T03:30:05.024Z,99.30
2019-01-23T03:32:35.126Z,99.30
2019-01-23T03:35:08.956Z,99.40
2019-01-23T03:37:39.050Z,99.20
2019-01-23T03:40:16.312Z,99.40
2019-01-23T03:42:46.403Z,99.80
2019-01-23T03:45:17.721Z,99.60
2019-01-23T03:47:47.879Z,99.60
2019-01-23T03:50:19.453Z,99.70
2019-01-23T03:52:50.565Z,99.70
2019-01-23T03:55:20.711Z,99.80
2019-01-23T03:58:03.478Z,99.80
2019-01-23T04:00:33.564Z,99.90
2019-01-23T04:03:03.684Z,99.90
2019-01-23T04:05:33.778Z,99.90
2019-01-23T04:08:03.895Z,99.90
2019-01-23T04:10:33.994Z,99.90
2019-01-23T04:13:04.654Z,99.90
2019-01-23T04:15:34.751Z,99.60
2019-01-23T04:18:04.876Z,99.80
2019-01-23T04:20:34.978Z,99.30
2019-01-23T04:23:05.134Z,99.20
2019-01-23T04:25:35.294Z,99.20
2019-01-23T04:28:05.431Z,99.10
2019-01-23T04:30:35.545Z,99.00
2019-01-23T04:33:05.671Z,99.00
2019-01-23T04:35:55.190Z,98.90
2019-01-23T04:38:25.304Z,99.40
2019-01-23T04:40:55.391Z,99.20
2019-01-23T04:43:25.503Z,99.30
2019-01-23T04:45:55.638Z,99.50
2019-01-23T04:48:25.759Z,99.40
2019-01-23T04:51:06.604Z,99.30
2019-01-23T04:53:38.426Z,99.10
2019-01-23T04:56:08.522Z,99.00
2019-01-23T04:58:38.646Z,99.10
2019-01-23T05:01:08.744Z,99.10
2019-01-23T05:03:38.864Z,98.80
2019-01-23T05:06:08.953Z,98.80
2019-01-23T05:08:39.070Z,99.10
2019-01-23T05:11:09.167Z,98.90
2019-01-23T05:13:39.283Z,98.70
2019-01-23T05:16:09.378Z,98.80
2019-01-23T05:18:40.459Z,98.60
2019-01-23T05:21:10.555Z,98.00
2019-01-23T05:23:40.723Z,97.80
2019-01-23T05:26:10.769Z,97.90
2019-01-23T05:28:40.896Z,98.20
2019-01-23T05:31:10.997Z,98.50
2019-01-23T05:33:41.101Z,98.70
2019-01-23T05:36:11.189Z,98.70
2019-01-23T05:38:41.298Z,98.40
2019-01-23T05:41:11.397Z,98.30
2019-01-23T05:43:41.506Z,98.30
2019-01-23T05:46:11.603Z,98.30
2019-01-23T05:48:41.736Z,98.60
2019-01-23T05:51:11.842Z,98.90
2019-01-23T05:53:41.968Z,98.90
2019-01-23T05:56:12.067Z,99.00
2019-01-23T05:58:42.225Z,98.80
2019-01-23T06:01:12.433Z,98.70
2019-01-23T06:03:42.533Z,98.80
2019-01-23T06:06:12.663Z,98.90
2019-01-23T06:08:42.778Z,99.10
2019-01-23T06:11:12.869Z,99.00
2019-01-23T06:13:42.983Z,98.90
2019-01-23T06:16:13.131Z,99.00
2019-01-23T06:18:43.243Z,99.10
2019-01-23T06:21:13.352Z,99.00
2019-01-23T06:23:43.734Z,99.10
2019-01-23T06:26:13.843Z,99.40
2019-01-23T06:28:43.956Z,99.00
2019-01-23T06:31:14.049Z,98.80
2019-01-23T06:33:44.174Z,98.90
2019-01-23T06:36:14.271Z,99.00
2019-01-23T06:38:44.388Z,99.00
2019-01-23T06:41:16.496Z,99.00
2019-01-23T06:43:46.607Z,99.00
2019-01-23T06:46:16.698Z,98.90
2019-01-23T06:48:46.811Z,98.90
2019-01-23T06:51:16.920Z,98.90
2019-01-23T06:53:47.031Z,99.00
2019-01-23T06:59:11.586Z,99.00
2019-01-23T07:01:41.686Z,98.60
2019-01-23T07:04:11.792Z,98.80
2019-01-23T07:06:54.661Z,98.80
2019-01-23T07:09:24.777Z,98.80
2019-01-23T07:11:54.869Z,98.60
2019-01-23T07:14:24.986Z,98.70
2019-01-23T07:16:55.092Z,98.70
2019-01-23T07:19:25.221Z,98.70
2019-01-23T07:21:55.334Z,98.70
2019-01-23T07:24:25.421Z,98.90
2019-01-23T07:26:55.514Z,98.70
2019-01-23T07:29:25.630Z,98.70
2019-01-23T07:31:55.716Z,98.40
2019-01-23T07:34:25.998Z,98.80
2019-01-23T07:36:57.198Z,98.70
2019-01-23T07:39:27.312Z,98.50
2019-01-23T07:41:57.420Z,98.30
2019-01-23T07:44:27.564Z,98.40
2019-01-23T07:46:57.772Z,98.30
2019-01-23T07:49:27.889Z,98.20
2019-01-23T07:51:57.990Z,98.10
2019-01-23T07:54:28.106Z,98.50
2019-01-23T07:56:58.195Z,97.90
2019-01-23T07:59:28.360Z,97.90
2019-01-23T08:01:58.454Z,97.90
2019-01-23T08:04:28.570Z,97.80
2019-01-23T08:06:58.709Z,97.90
2019-01-23T08:09:28.824Z,97.90
2019-01-23T08:11:58.912Z,98.00
2019-01-23T08:14:29.024Z,97.80
2019-01-23T08:16:59.114Z,97.40
2019-01-23T08:19:29.233Z,97.60
2019-01-23T08:21:59.328Z,97.60
2019-01-23T08:24:29.441Z,97.30
2019-01-23T08:26:59.553Z,96.70
2019-01-23T08:29:29.645Z,96.40
2019-01-23T08:31:59.752Z,96.30
2019-01-23T08:34:29.841Z,96.30
2019-01-23T08:36:59.960Z,96.50
2019-01-23T08:39:30.160Z,96.40
2019-01-23T08:42:00.276Z,95.20
2019-01-23T08:44:30.376Z,95.10
2019-01-23T08:47:01.722Z,95.10
2019-01-23T08:49:31.818Z,94.80
2019-01-23T08:52:01.930Z,94.90
2019-01-23T08:54:32.046Z,94.40
2019-01-23T08:57:02.182Z,94.60
2019-01-23T08:59:32.365Z,94.70
2019-01-23T09:02:02.455Z,94.90
2019-01-23T09:04:32.568Z,94.80
2019-01-23T09:07:02.659Z,95.00
2019-01-23T09:09:32.769Z,94.90
2019-01-23T09:12:02.866Z,94.80
2019-01-23T09:14:33.150Z,94.50
2019-01-23T09:17:03.239Z,94.50
2019-01-23T09:19:33.365Z,94.60
2019-01-23T09:22:03.546Z,94.10
2019-01-23T09:24:33.646Z,94.10
2019-01-23T09:27:03.744Z,94.50
2019-01-23T09:29:33.858Z,94.90
2019-01-23T09:32:23.461Z,94.50
2019-01-23T09:35:03.998Z,93.80
2019-01-23T09:37:44.235Z,93.60
2019-01-23T09:40:24.716Z,93.90
2019-01-23T09:43:11.637Z,93.60
2019-01-23T09:46:04.541Z,93.20
2019-01-23T09:48:51.562Z,92.80
2019-01-23T09:52:01.585Z,93.00
2019-01-23T09:54:32.677Z,93.10
2019-01-23T09:57:02.769Z,93.70
2019-01-23T09:59:32.919Z,92.30
2019-01-23T10:02:03.018Z,92.40
2019-01-23T10:04:33.144Z,92.90
2019-01-23T10:07:03.271Z,93.10
2019-01-23T10:09:34.003Z,92.60
2019-01-23T10:12:04.167Z,91.90
2019-01-23T10:14:34.262Z,91.40
2019-01-23T10:17:05.370Z,91.50
2019-01-23T10:19:35.458Z,90.70
2019-01-23T10:22:05.573Z,90.10
2019-01-23T10:24:36.161Z,90.50
2019-01-23T10:27:06.357Z,91.00
2019-01-23T10:29:36.460Z,90.30
2019-01-23T10:32:06.589Z,90.10
2019-01-23T10:34:36.688Z,90.90
2019-01-23T10:37:06.792Z,90.90
2019-01-23T10:39:56.315Z,90.90
2019-01-23T10:42:38.617Z,90.40
2019-01-23T10:45:11.752Z,90.10
2019-01-23T10:47:42.120Z,90.20
2019-01-23T10:50:15.804Z,90.20
2019-01-23T10:52:45.891Z,84.90
2019-01-23T10:55:15.994Z,80.70
2019-01-23T10:57:46.126Z,79.30
2019-01-23T11:00:22.155Z,73.80
2019-01-23T11:02:52.239Z,76.30
2019-01-23T11:05:24.260Z,71.30
2019-01-23T11:07:54.376Z,67.10
2019-01-23T11:10:28.250Z,60.60
2019-01-23T11:12:58.336Z,65.60
2019-01-23T11:15:28.440Z,61.60
2019-01-23T11:17:58.521Z,61.30
2019-01-23T11:20:31.980Z,58.30
2019-01-23T11:23:02.119Z,60.50
2019-01-23T11:25:32.223Z,59.40
2019-01-23T11:28:02.316Z,62.20
2019-01-23T11:30:32.983Z,64.50
2019-01-23T11:33:03.180Z,65.80
2019-01-23T11:35:33.242Z,67.50
2019-01-23T11:38:03.328Z,65.70
2019-01-23T11:40:33.435Z,65.60
2019-01-23T11:43:03.614Z,70.90
2019-01-23T11:45:33.724Z,68.60
2019-01-23T11:48:04.081Z,72.20
2019-01-23T11:50:34.163Z,73.50
2019-01-23T11:53:04.821Z,75.60
2019-01-23T11:55:34.932Z,76.90
2019-01-23T11:58:05.025Z,76.80
2019-01-23T12:00:36.509Z,78.30
2019-01-23T12:03:07.165Z,79.30
2019-01-23T12:05:37.315Z,78.70
2019-01-23T12:08:07.411Z,79.30
2019-01-23T12:10:37.522Z,77.40
2019-01-23T12:13:07.639Z,78.20
2019-01-23T12:15:41.037Z,76.20
2019-01-23T12:18:09.550Z,75.40
2019-01-23T12:20:39.643Z,74.10
2019-01-23T12:23:09.999Z,75.20
2019-01-23T12:25:40.155Z,75.30
2019-01-23T12:28:10.609Z,75.60
2019-01-23T12:30:40.676Z,75.20
2019-01-23T12:33:10.792Z,75.80
2019-01-23T12:35:40.930Z,75.70
2019-01-23T12:38:11.041Z,76.30
2019-01-23T12:40:41.188Z,75.00
2019-01-23T12:43:11.286Z,72.50
2019-01-23T12:45:41.414Z,70.20
2019-01-23T12:48:14.551Z,71.90
2019-01-23T12:50:44.728Z,72.20
2019-01-23T12:53:15.199Z,72.80
2019-01-23T12:55:45.290Z,74.00
2019-01-23T12:58:16.374Z,75.90
2019-01-23T13:00:46.529Z,75.70
2019-01-23T13:03:16.777Z,77.10
2019-01-23T13:05:46.888Z,78.60
2019-01-23T13:08:17.012Z,78.20
2019-01-23T13:10:47.101Z,79.30
2019-01-23T13:13:17.229Z,79.80
2019-01-23T13:15:47.325Z,80.00
2019-01-23T13:18:17.448Z,81.30
2019-01-23T13:20:47.550Z,81.70
2019-01-23T13:23:19.861Z,83.50
2019-01-23T13:25:49.490Z,81.90
2019-01-23T13:28:19.586Z,81.70
2019-01-23T13:30:49.715Z,82.00
2019-01-23T13:33:19.828Z,81.40
2019-01-23T13:35:49.952Z,81.30
2019-01-23T13:38:20.051Z,81.00
2019-01-23T13:40:50.180Z,80.00
2019-01-23T13:43:20.274Z,81.40
2019-01-23T13:45:50.400Z,81.40
2019-01-23T13:48:20.495Z,83.10
2019-01-23T13:50:50.701Z,84.40
2019-01-23T13:53:20.793Z,85.10
2019-01-23T13:55:50.918Z,86.00
2019-01-23T13:58:21.017Z,85.80
2019-01-23T14:00:52.122Z,85.60
2019-01-23T14:03:22.220Z,86.60
2019-01-23T14:05:52.417Z,86.50
2019-01-23T14:08:22.533Z,87.40
2019-01-23T14:10:52.620Z,86.20
2019-01-23T14:13:22.777Z,87.00
2019-01-23T14:15:52.859Z,88.30
2019-01-23T14:18:22.992Z,88.80
2019-01-23T14:20:53.093Z,89.00
2019-01-23T14:23:23.226Z,90.00
2019-01-23T14:25:53.321Z,90.10
2019-01-23T14:28:23.446Z,90.50
2019-01-23T14:30:53.557Z,90.40
2019-01-23T14:33:23.671Z,90.90
2019-01-23T14:35:53.928Z,90.30
2019-01-23T14:38:24.097Z,90.60
2019-01-23T14:40:54.189Z,90.70
2019-01-23T14:43:24.306Z,90.90
2019-01-23T14:45:54.397Z,91.10
2019-01-23T14:48:24.541Z,91.10
2019-01-23T14:50:54.646Z,91.00
2019-01-23T14:53:24.936Z,91.10
2019-01-23T14:55:55.042Z,91.10
2019-01-23T14:58:25.221Z,91.80
2019-01-23T15:00:55.321Z,91.60
2019-01-23T15:03:26.425Z,91.80
2019-01-23T15:05:56.518Z,91.70
2019-01-23T15:08:26.638Z,92.00
2019-01-23T15:10:56.741Z,91.80
2019-01-23T15:13:27.060Z,92.00
2019-01-23T15:15:57.160Z,92.20
2019-01-23T15:18:27.295Z,92.40
2019-01-23T15:20:57.393Z,92.40
2019-01-23T15:23:27.514Z,92.60
2019-01-23T15:25:57.614Z,92.50
2019-01-23T15:28:27.764Z,92.40
2019-01-23T15:30:57.868Z,93.00
2019-01-23T15:33:27.993Z,92.80
2019-01-23T15:35:58.096Z,93.10
2019-01-23T15:38:28.226Z,92.70
2019-01-23T15:40:58.329Z,92.60
2019-01-23T15:43:28.450Z,93.40
2019-01-23T15:45:58.546Z,93.30
2019-01-23T15:48:28.725Z,93.50
2019-01-23T15:50:58.820Z,93.30
2019-01-23T15:53:29.020Z,93.30
2019-01-23T15:55:59.131Z,93.00
2019-01-23T15:58:29.315Z,93.10
2019-01-23T16:00:59.380Z,93.10
2019-01-23T16:03:29.952Z,93.10
2019-01-23T16:06:00.046Z,93.10
2019-01-23T16:08:30.177Z,92.90
2019-01-23T16:11:00.275Z,92.80
2019-01-23T16:13:31.042Z,92.80
2019-01-23T16:16:01.168Z,93.30
2019-01-23T16:18:31.909Z,93.30
2019-01-23T16:21:01.987Z,93.10
2019-01-23T16:23:32.336Z,93.40
2019-01-23T16:26:02.432Z,93.30
2019-01-23T16:28:32.600Z,93.00
2019-01-23T16:31:02.697Z,93.30
2019-01-23T16:33:32.852Z,93.30
2019-01-23T16:36:06.302Z,93.20
2019-01-23T16:38:36.430Z,93.70
2019-01-23T16:41:06.530Z,93.40
2019-01-23T16:43:36.900Z,93.30
2019-01-23T16:46:08.361Z,93.10
2019-01-23T16:48:58.071Z,93.30
2019-01-23T16:51:28.155Z,93.30
2019-01-23T16:54:17.711Z,93.60
2019-01-23T16:56:47.889Z,93.60
2019-01-23T16:59:18.008Z,93.60
2019-01-23T17:01:55.482Z,93.30
2019-01-23T17:04:25.646Z,93.10
2019-01-23T17:06:59.214Z,93.20
2019-01-23T17:09:29.340Z,93.10
2019-01-23T17:11:59.437Z,93.70
2019-01-23T17:14:29.576Z,93.30
2019-01-23T17:16:59.808Z,93.30
2019-01-23T17:19:29.936Z,93.20
2019-01-23T17:22:00.037Z,93.20
2019-01-23T17:24:30.153Z,93.30
2019-01-23T17:27:00.256Z,93.20
2019-01-23T17:29:50.041Z,93.30
2019-01-23T17:32:02.285Z,93.30
2019-01-23T17:34:32.429Z,93.10
2019-01-23T17:37:02.615Z,93.10
2019-01-23T17:39:32.815Z,93.10
2019-01-23T17:42:03.008Z,93.10
2019-01-23T17:44:33.104Z,93.30
2019-01-23T17:47:03.213Z,92.90
2019-01-23T17:49:33.344Z,93.00
2019-01-23T17:52:03.439Z,93.20
2019-01-23T17:54:34.394Z,93.10
2019-01-23T17:57:04.683Z,93.30
2019-01-23T17:59:34.803Z,93.20
2019-01-23T18:02:04.924Z,93.20
2019-01-23T18:04:35.096Z,93.10
2019-01-23T18:07:05.181Z,93.20
2019-01-23T18:09:35.303Z,93.20
2019-01-23T18:12:05.395Z,93.30
2019-01-23T18:14:35.970Z,93.40
2019-01-23T18:17:06.164Z,93.40
2019-01-23T18:19:37.261Z,93.40
2019-01-23T18:22:07.357Z,93.50
2019-01-23T18:24:37.481Z,93.50
2019-01-23T18:27:07.730Z,93.50
2019-01-23T18:29:51.311Z,93.20
2019-01-23T18:32:21.403Z,92.90
2019-01-23T18:35:02.096Z,92.90
2019-01-23T18:37:46.381Z,92.80
2019-01-23T18:40:32.506Z,92.90
2019-01-23T18:43:31.057Z,93.00
2019-01-23T18:46:09.020Z,93.00
2019-01-23T18:48:47.208Z,93.10
2019-01-23T18:51:20.649Z,93.20
2019-01-23T18:53:50.828Z,93.40
2019-01-23T18:56:21.992Z,93.50
2019-01-23T18:58:52.189Z,93.50
2019-01-23T19:01:22.328Z,93.70
2019-01-23T19:03:52.421Z,94.00
2019-01-23T19:06:22.544Z,93.70
2019-01-23T19:08:52.659Z,93.60
2019-01-23T19:11:23.684Z,93.60
2019-01-23T19:13:53.790Z,93.60
2019-01-23T19:16:24.075Z,93.30
2019-01-23T19:18:54.211Z,93.20
2019-01-23T19:21:24.327Z,92.80
2019-01-23T19:23:54.422Z,93.10
2019-01-23T19:26:24.546Z,92.90
2019-01-23T19:28:54.643Z,93.00
2019-01-23T19:31:24.771Z,93.10
2019-01-23T19:33:55.027Z,93.30
2019-01-23T19:36:25.341Z,93.50
2019-01-23T19:38:55.438Z,92.80
2019-01-23T19:41:25.565Z,92.90
2019-01-23T19:43:55.653Z,92.90
2019-01-23T19:46:25.844Z,93.00
2019-01-23T19:48:55.924Z,92.70
2019-01-23T19:51:26.378Z,92.70
2019-01-23T19:53:56.469Z,92.60
2019-01-23T19:56:26.592Z,92.50
2019-01-23T19:58:56.759Z,92.50
2019-01-23T20:01:26.885Z,92.80
2019-01-23T20:03:56.985Z,93.00
2019-01-23T20:06:27.106Z,92.90
2019-01-23T20:09:16.638Z,93.30
2019-01-23T20:11:46.761Z,92.60
2019-01-23T20:14:18.093Z,92.30
2019-01-23T20:16:48.236Z,92.50
2019-01-23T20:19:37.804Z,92.70
2019-01-23T20:22:07.919Z,92.90
2019-01-23T20:24:38.021Z,93.00
2019-01-23T20:27:08.141Z,92.60
2019-01-23T20:29:38.234Z,92.70
2019-01-23T20:32:08.460Z,92.50
2019-01-23T20:34:39.609Z,92.80
2019-01-23T20:37:09.728Z,92.70
2019-01-23T20:39:39.824Z,92.40
2019-01-23T20:42:09.948Z,92.50
2019-01-23T20:44:40.038Z,92.80
2019-01-23T20:47:10.159Z,92.40
2019-01-23T20:49:40.253Z,92.70
2019-01-23T20:52:10.384Z,92.80
2019-01-23T20:54:40.501Z,92.70
2019-01-23T20:57:10.623Z,92.70
2019-01-23T20:59:40.726Z,92.60
2019-01-23T21:02:10.854Z,92.50
2019-01-23T21:04:40.949Z,92.50
2019-01-23T21:07:11.083Z,92.20
2019-01-23T21:09:41.177Z,92.40
2019-01-23T21:12:11.330Z,92.30
2019-01-23T21:14:41.421Z,92.80
2019-01-23T21:17:11.549Z,92.20
2019-01-23T21:19:41.642Z,92.00
2019-01-23T21:22:11.776Z,92.20
2019-01-23T21:24:41.873Z,92.10
2019-01-23T21:27:11.998Z,92.30
2019-01-23T21:29:42.086Z,92.40
2019-01-23T21:32:12.211Z,92.20
2019-01-23T21:34:42.300Z,92.20
2019-01-23T21:37:12.428Z,92.30
2019-01-23T21:39:42.532Z,92.10
2019-01-23T21:42:12.656Z,92.10
2019-01-23T21:44:42.761Z,92.00
2019-01-23T21:47:12.890Z,91.90
2019-01-23T21:49:42.985Z,91.60
2019-01-23T21:52:13.118Z,91.60
2019-01-23T21:54:43.247Z,91.70
2019-01-23T21:57:13.365Z,92.00
2019-01-23T21:59:43.466Z,90.80
2019-01-23T22:02:13.628Z,91.10
2019-01-23T22:04:43.677Z,91.40
2019-01-23T22:07:13.863Z,91.30
2019-01-23T22:09:43.964Z,91.00
2019-01-23T22:12:14.085Z,90.80
2019-01-23T22:14:44.185Z,90.90
2019-01-23T22:17:14.691Z,90.60
2019-01-23T22:19:44.786Z,90.50
2019-01-23T22:22:14.901Z,90.60
2019-01-23T22:24:44.992Z,91.20
2019-01-23T22:27:15.110Z,91.00
2019-01-23T22:29:45.199Z,90.90
2019-01-23T22:32:15.898Z,90.50
2019-01-23T22:34:46.067Z,90.40
2019-01-23T22:37:16.175Z,90.30
2019-01-23T22:39:46.278Z,90.10
2019-01-23T22:42:16.409Z,90.20
2019-01-23T22:44:46.508Z,90.20
2019-01-23T22:47:16.621Z,90.10
2019-01-23T22:49:46.708Z,90.20
2019-01-23T22:52:16.821Z,90.40
2019-01-23T22:54:46.932Z,90.10
2019-01-23T22:57:18.018Z,90.00
2019-01-23T22:59:48.109Z,89.70
2019-01-23T23:02:18.221Z,89.90
2019-01-23T23:04:48.320Z,89.90
2019-01-23T23:07:18.436Z,89.70
2019-01-23T23:09:48.603Z,89.50
2019-01-23T23:12:18.724Z,89.10
2019-01-23T23:14:48.816Z,90.00
2019-01-23T23:17:19.010Z,90.00
2019-01-23T23:19:49.143Z,90.40
2019-01-23T23:22:19.259Z,90.00
2019-01-23T23:24:50.318Z,90.00
2019-01-23T23:27:20.435Z,90.00
2019-01-23T23:29:50.528Z,89.50
2019-01-23T23:32:20.637Z,90.00
2019-01-23T23:34:50.808Z,88.20
2019-01-23T23:37:20.942Z,88.00
2019-01-23T23:39:51.037Z,88.70
2019-01-23T23:42:21.255Z,88.00
2019-01-23T23:44:51.380Z,88.40
2019-01-23T23:47:21.597Z,88.90
2019-01-23T23:49:51.689Z,87.50
2019-01-23T23:52:21.802Z,87.60
2019-01-23T23:54:51.906Z,88.00
2019-01-23T23:57:22.018Z,88.30
2019-01-23T23:59:52.173Z,88.30
